Time;durP1;ratioP1;P1;durP2;ratioP2;P2;SDS_P1;SDS_P2;PMS_P1;PMS_P2;Temp;Humidity;BMP_temperature;BMP_pressure;BME280_temperature;BME280_humidity;BME280_pressure;Samples;Min_cycle;Max_cycle;Signal;HPM_P1;HPM_P2
2024/01/29 00:02:14;;;;;;;10.9;6.2;;;;;;;1.82;75.60547;951.0305;;;;
2024/01/29 00:04:39;;;;;;;13.2;6.8;;;;;;;1.88;75.4707;951.0101;;;;
2024/01/29 00:07:04;;;;;;;12.9;7.1;;;;;;;1.81;76.3877;950.9815;;;;
2024/01/29 00:09:29;;;;;;;10.5;5.8;;;;;;;1.67;76.62891;950.9864;;;;
2024/01/29 00:11:54;;;;;;;8.2;4.6;;;;;;;1.64;77.10449;950.9861;;;;
2024/01/29 00:14:20;;;;;;;7.1;4.5;;;;;;;1.57;77.61719;950.9665;;;;
2024/01/29 00:16:45;;;;;;;6.9;4.2;;;;;;;1.75;76.85645;950.9409;;;;
2024/01/29 00:19:10;;;;;;;7;3.8;;;;;;;1.77;76.54785;950.9048;;;;
2024/01/29 00:21:35;;;;;;;4;2.8;;;;;;;1.74;76.02637;950.9315;;;;
2024/01/29 00:24:01;;;;;;;4.2;2.9;;;;;;;1.69;75.59375;950.9041;;;;
2024/01/29 00:26:25;;;;;;;6.8;3.7;;;;;;;1.84;74.92773;950.9171;;;;
2024/01/29 00:28:51;;;;;;;7.4;4.1;;;;;;;1.86;74.6377;950.8867;;;;
2024/01/29 00:31:16;;;;;;;8.5;4.2;;;;;;;1.78;75.11621;951.0126;;;;
2024/01/29 00:33:40;;;;;;;6.7;3.8;;;;;;;1.89;74.7002;950.9658;;;;
2024/01/29 00:36:06;;;;;;;7.5;4.1;;;;;;;1.78;74.8252;950.8862;;;;
2024/01/29 00:38:31;;;;;;;6.1;4.4;;;;;;;1.73;73.82129;950.9437;;;;
2024/01/29 00:40:56;;;;;;;6.7;4.4;;;;;;;1.74;74.22754;950.9531;;;;
2024/01/29 00:43:21;;;;;;;7.5;4.5;;;;;;;1.76;74.67676;950.9494;;;;
2024/01/29 00:45:46;;;;;;;8.2;4.2;;;;;;;1.58;75.02637;950.9913;;;;
2024/01/29 00:48:11;;;;;;;7;4.1;;;;;;;1.74;75.00879;950.9733;;;;
2024/01/29 00:50:36;;;;;;;5.9;4.1;;;;;;;1.78;75.22949;950.9878;;;;
2024/01/29 00:53:02;;;;;;;6.2;3.4;;;;;;;1.73;75.57617;951.0235;;;;
2024/01/29 00:55:27;;;;;;;5.3;3.1;;;;;;;1.76;75.70703;951.0377;;;;
2024/01/29 00:57:52;;;;;;;5;3.1;;;;;;;1.57;76.3877;950.9672;;;;
2024/01/29 01:00:17;;;;;;;5.2;2.9;;;;;;;1.48;76.70801;950.9977;;;;
2024/01/29 01:02:42;;;;;;;5.3;2.9;;;;;;;1.54;76.18066;951.007;;;;
2024/01/29 01:05:08;;;;;;;5.7;2.7;;;;;;;1.58;75.58594;951.0321;;;;
2024/01/29 01:07:33;;;;;;;4.8;3.3;;;;;;;1.5;76.15039;950.9767;;;;
2024/01/29 01:09:58;;;;;;;4.4;3.4;;;;;;;1.51;76.16504;951.0578;;;;
2024/01/29 01:12:23;;;;;;;5.1;3.4;;;;;;;1.44;76.47656;951.0658;;;;
2024/01/29 01:14:48;;;;;;;5.4;3.2;;;;;;;1.53;76.39355;951.0764;;;;
2024/01/29 01:17:13;;;;;;;8.1;4.5;;;;;;;1.48;76.58301;951.1142;;;;
2024/01/29 01:19:39;;;;;;;7.1;4.4;;;;;;;1.63;76.08594;951.1063;;;;
2024/01/29 01:22:04;;;;;;;6.3;4.2;;;;;;;1.6;76.11426;951.0896;;;;
2024/01/29 01:24:29;;;;;;;6.9;3.8;;;;;;;1.45;76.50195;951.079;;;;
2024/01/29 01:26:54;;;;;;;5.1;3.6;;;;;;;1.33;77.11621;951.1108;;;;
2024/01/29 01:29:19;;;;;;;4.7;2.8;;;;;;;1.44;76.28613;951.0834;;;;
2024/01/29 01:31:44;;;;;;;6.1;3;;;;;;;1.58;75.68652;951.0189;;;;
2024/01/29 01:34:09;;;;;;;5.5;3.1;;;;;;;1.63;75.38281;951.0524;;;;
2024/01/29 01:36:34;;;;;;;4.7;3.3;;;;;;;1.48;75.82324;951.0367;;;;
2024/01/29 01:38:59;;;;;;;4.8;2.7;;;;;;;1.64;75.24805;951.0369;;;;
2024/01/29 01:41:24;;;;;;;3.9;2.6;;;;;;;1.63;75.05469;951.0401;;;;
2024/01/29 01:43:50;;;;;;;3.3;2.2;;;;;;;1.63;74.62988;951.0479;;;;
2024/01/29 01:46:15;;;;;;;3.1;1.9;;;;;;;1.5;74.98828;951.0621;;;;
2024/01/29 01:48:40;;;;;;;3.4;2.3;;;;;;;1.48;75.52344;951.0047;;;;
2024/01/29 01:51:05;;;;;;;4.7;2.7;;;;;;;1.48;75.56641;950.9786;;;;
2024/01/29 01:53:30;;;;;;;267.7;130.9;;;;;;;1.32;76.14063;950.9861;;;;
2024/01/29 01:55:55;;;;;;;97.5;47.6;;;;;;;1.35;75.67969;950.9852;;;;
2024/01/29 01:58:21;;;;;;;18;9.5;;;;;;;1.44;75.70508;950.9986;;;;
2024/01/29 02:00:46;;;;;;;10.2;7.2;;;;;;;1.52;75.56348;951.0255;;;;
2024/01/29 02:03:11;;;;;;;5.2;4.1;;;;;;;1.58;74.17676;950.9897;;;;
2024/01/29 02:05:36;;;;;;;6.3;3.8;;;;;;;1.67;73.47559;951.0034;;;;
2024/01/29 02:08:01;;;;;;;5.4;3.4;;;;;;;1.72;73.41699;950.8834;;;;
2024/01/29 02:10:26;;;;;;;2.6;2.3;;;;;;;1.82;72.00293;950.9114;;;;
2024/01/29 02:12:51;;;;;;;6.3;5.4;;;;;;;1.77;72.61035;950.8781;;;;
2024/01/29 02:15:16;;;;;;;3.3;2.4;;;;;;;1.75;71.23145;950.858;;;;
2024/01/29 02:17:41;;;;;;;3.1;2;;;;;;;1.83;71.25488;950.8044;;;;
2024/01/29 02:20:06;;;;;;;2.8;2.3;;;;;;;1.94;70.87012;950.8367;;;;
2024/01/29 02:22:32;;;;;;;2.6;1.6;;;;;;;1.87;70.66895;950.8295;;;;
2024/01/29 02:24:57;;;;;;;2.1;1.4;;;;;;;1.77;71.16699;950.8794;;;;
2024/01/29 02:27:22;;;;;;;2;1.3;;;;;;;1.76;71.5791;950.8649;;;;
2024/01/29 02:29:47;;;;;;;2.5;1.9;;;;;;;1.62;72.81836;950.8953;;;;
2024/01/29 02:32:12;;;;;;;2.8;2.5;;;;;;;1.72;72.88086;950.8709;;;;
2024/01/29 02:34:37;;;;;;;2.2;2;;;;;;;1.66;73.54102;950.8928;;;;
2024/01/29 02:37:03;;;;;;;2.5;2.2;;;;;;;1.52;74.06445;950.925;;;;
2024/01/29 02:39:28;;;;;;;2.1;1.8;;;;;;;1.53;74.01074;950.8945;;;;
2024/01/29 02:41:53;;;;;;;1.9;1.5;;;;;;;1.58;74.1748;950.8544;;;;
2024/01/29 02:44:18;;;;;;;2.1;1.6;;;;;;;1.64;74.25293;950.8742;;;;
2024/01/29 02:46:43;;;;;;;2.3;1.6;;;;;;;1.57;74.35254;950.7863;;;;
2024/01/29 02:49:08;;;;;;;2.7;1.7;;;;;;;1.59;74.17676;950.855;;;;
2024/01/29 02:51:33;;;;;;;2.4;1.9;;;;;;;1.56;74.39746;950.8315;;;;
2024/01/29 02:53:59;;;;;;;2.3;1.7;;;;;;;1.47;74.25684;950.7431;;;;
2024/01/29 02:56:24;;;;;;;3.1;1.7;;;;;;;1.37;74.56348;950.757;;;;
2024/01/29 02:58:49;;;;;;;2.2;1.7;;;;;;;1.48;74.15918;950.7058;;;;
2024/01/29 03:01:14;;;;;;;2.1;1.8;;;;;;;1.41;73.72168;950.7955;;;;
2024/01/29 03:03:39;;;;;;;1.5;1.4;;;;;;;1.32;73.62793;950.805;;;;
2024/01/29 03:06:05;;;;;;;2.3;1.4;;;;;;;1.4;73.39648;950.6978;;;;
2024/01/29 03:08:30;;;;;;;1.8;1.4;;;;;;;1.46;72.24316;950.7512;;;;
2024/01/29 03:10:55;;;;;;;2.7;1.7;;;;;;;1.41;73.07324;950.7615;;;;
2024/01/29 03:13:20;;;;;;;3;2.1;;;;;;;1.34;74.21191;950.7316;;;;
2024/01/29 03:15:45;;;;;;;2.6;1.8;;;;;;;1.28;74.67188;950.7798;;;;
2024/01/29 03:18:10;;;;;;;1.4;1.3;;;;;;;1.53;72.41211;950.7391;;;;
2024/01/29 03:20:35;;;;;;;1.7;1.5;;;;;;;1.58;72.28711;950.738;;;;
2024/01/29 03:23:00;;;;;;;2;1.6;;;;;;;1.74;72.57031;950.7079;;;;
2024/01/29 03:25:25;;;;;;;3.4;1.9;;;;;;;1.52;73.63965;950.7633;;;;
2024/01/29 03:27:50;;;;;;;2.3;1.7;;;;;;;1.38;74.20898;950.7062;;;;
2024/01/29 03:30:15;;;;;;;2.6;1.8;;;;;;;1.46;73.60645;950.7639;;;;
2024/01/29 03:32:41;;;;;;;2.8;1.6;;;;;;;1.49;72.97559;950.7406;;;;
2024/01/29 03:35:06;;;;;;;2.4;1.6;;;;;;;1.43;73.37891;950.7989;;;;
2024/01/29 03:37:31;;;;;;;2.7;1.7;;;;;;;1.44;72.85449;950.7572;;;;
2024/01/29 03:39:56;;;;;;;2.7;1.6;;;;;;;1.41;73.68848;950.7656;;;;
2024/01/29 03:42:21;;;;;;;2.4;1.6;;;;;;;1.33;74.47852;950.8;;;;
2024/01/29 03:44:46;;;;;;;2.5;1.8;;;;;;;1.17;75.26563;950.8278;;;;
2024/01/29 03:47:11;;;;;;;3.7;2;;;;;;;1.24;74.61914;950.7772;;;;
2024/01/29 03:49:36;;;;;;;5.4;2.2;;;;;;;1.25;74.97852;950.8569;;;;
2024/01/29 03:52:01;;;;;;;4.7;2.5;;;;;;;1.12;75.02148;950.7264;;;;
2024/01/29 03:54:26;;;;;;;8.6;3.2;;;;;;;1.29;74.41699;950.7852;;;;
2024/01/29 03:56:52;;;;;;;7;2.7;;;;;;;1.24;74.47363;950.7568;;;;
2024/01/29 03:59:17;;;;;;;6.7;2.7;;;;;;;1.21;74.63672;950.7637;;;;
2024/01/29 04:02:31;;;;;;;3.5;1.8;;;;;;;1.04;74.93066;950.7287;;;;
2024/01/29 04:04:56;;;;;;;2;1.5;;;;;;;1.13;74.97852;950.7662;;;;
2024/01/29 04:07:21;;;;;;;2.3;1.6;;;;;;;1.11;75.1543;950.7913;;;;
2024/01/29 04:09:46;;;;;;;1.4;1.3;;;;;;;1.12;75.26758;950.7037;;;;
2024/01/29 04:12:11;;;;;;;1.6;1.2;;;;;;;1.11;75.03125;950.8083;;;;
2024/01/29 04:14:36;;;;;;;1.6;1.3;;;;;;;1.21;74.35645;950.7925;;;;
2024/01/29 04:17:05;;;;;;;1.3;1.2;;;;;;;1.1;73.76855;950.7551;;;;
2024/01/29 04:19:27;;;;;;;1.5;1.2;;;;;;;1.26;73.11426;950.7224;;;;
2024/01/29 04:21:52;;;;;;;1.5;1;;;;;;;1.36;72.01367;950.6814;;;;
2024/01/29 04:24:17;;;;;;;1.8;1.1;;;;;;;1.47;71.20605;950.7098;;;;
2024/01/29 04:26:42;;;;;;;0.9;0.9;;;;;;;1.48;70.0791;950.7064;;;;
2024/01/29 04:29:08;;;;;;;0.8;0.5;;;;;;;1.81;66.6084;950.6922;;;;
2024/01/29 04:31:32;;;;;;;1.1;0.8;;;;;;;2;64.47852;950.6792;;;;
2024/01/29 04:33:57;;;;;;;1.6;0.9;;;;;;;2.01;65.15137;950.6796;;;;
2024/01/29 04:36:23;;;;;;;6.9;4.1;;;;;;;1.99;66.4707;950.7138;;;;
2024/01/29 04:38:49;;;;;;;3.2;1.8;;;;;;;1.79;69.80566;950.7717;;;;
2024/01/29 04:41:13;;;;;;;3.6;1.6;;;;;;;1.58;71.61426;950.7926;;;;
2024/01/29 04:43:38;;;;;;;2.9;2.1;;;;;;;1.46;72.42188;950.722;;;;
2024/01/29 04:46:03;;;;;;;5.2;2.8;;;;;;;1.37;72.49609;950.7954;;;;
2024/01/29 04:48:29;;;;;;;7.4;3.4;;;;;;;1.35;72.26953;950.7816;;;;
2024/01/29 04:50:54;;;;;;;7.2;3.8;;;;;;;1.2;72.99316;950.8195;;;;
2024/01/29 04:53:19;;;;;;;4.9;3.3;;;;;;;1.28;72.7041;950.7974;;;;
2024/01/29 04:55:44;;;;;;;5.8;2.8;;;;;;;1.22;73.2627;950.8823;;;;
2024/01/29 04:58:09;;;;;;;3.7;2.1;;;;;;;1.17;73.00879;950.8781;;;;
2024/01/29 05:00:35;;;;;;;3.4;1.9;;;;;;;1.14;73.34961;950.8086;;;;
2024/01/29 05:03:48;;;;;;;2.8;1.5;;;;;;;1.01;74.0752;950.8393;;;;
2024/01/29 05:06:13;;;;;;;3.1;1.8;;;;;;;1.08;73.9873;950.7991;;;;
2024/01/29 05:08:38;;;;;;;1.8;1.7;;;;;;;1.04;74.31445;950.8359;;;;
2024/01/29 05:11:03;;;;;;;2.7;1.7;;;;;;;1.02;73.91113;950.8685;;;;
2024/01/29 05:13:29;;;;;;;2.4;1.6;;;;;;;0.98;74.37207;950.7695;;;;
2024/01/29 05:15:54;;;;;;;3.4;1.6;;;;;;;1.03;74.0127;950.8588;;;;
2024/01/29 05:18:19;;;;;;;2.6;1.4;;;;;;;1.02;74.03223;950.8095;;;;
2024/01/29 05:20:45;;;;;;;2.1;1.4;;;;;;;1.05;73.93848;950.7572;;;;
2024/01/29 05:23:09;;;;;;;2.9;1.8;;;;;;;0.98;74.46191;950.7978;;;;
2024/01/29 05:25:34;;;;;;;2.9;2.1;;;;;;;0.93;74.71973;950.7803;;;;
2024/01/29 05:27:59;;;;;;;4.9;2.4;;;;;;;1.06;74.53125;950.8499;;;;
2024/01/29 05:30:24;;;;;;;3.4;2;;;;;;;0.95;74.8252;950.8315;;;;
2024/01/29 05:32:50;;;;;;;3.1;2;;;;;;;1.15;74.79297;950.8532;;;;
2024/01/29 05:35:15;;;;;;;2.4;2.1;;;;;;;1.02;75.48438;950.7944;;;;
2024/01/29 05:37:40;;;;;;;2.8;1.8;;;;;;;0.99;74.76563;950.8138;;;;
2024/01/29 05:40:05;;;;;;;6.4;3;;;;;;;0.87;75.06543;950.8228;;;;
2024/01/29 05:42:30;;;;;;;4.6;3;;;;;;;1.03;74.7832;950.774;;;;
2024/01/29 05:44:55;;;;;;;4.2;2.9;;;;;;;1.02;74.51367;950.8763;;;;
2024/01/29 05:47:20;;;;;;;3.4;2.2;;;;;;;0.91;74.27051;950.8928;;;;
2024/01/29 05:49:45;;;;;;;6.2;3.1;;;;;;;1.11;73.63477;950.8491;;;;
2024/01/29 05:52:10;;;;;;;8.1;4.7;;;;;;;1.1;73.79004;950.8656;;;;
2024/01/29 05:54:36;;;;;;;6.6;2.7;;;;;;;1.16;72.80664;950.9166;;;;
2024/01/29 05:57:01;;;;;;;4.1;2.6;;;;;;;1.21;73.06055;950.9428;;;;
2024/01/29 05:59:26;;;;;;;2.5;2.1;;;;;;;1.13;73.59473;950.925;;;;
2024/01/29 06:01:51;;;;;;;3.3;2.1;;;;;;;0.88;74.52246;950.9207;;;;
2024/01/29 06:04:16;;;;;;;3.3;2.3;;;;;;;0.92;75.2207;950.9681;;;;
2024/01/29 06:06:43;;;;;;;5;3.2;;;;;;;0.84;75.20605;950.933;;;;
2024/01/29 06:09:07;;;;;;;6.5;3.5;;;;;;;0.81;75.3125;950.9398;;;;
2024/01/29 06:11:31;;;;;;;6.3;3.9;;;;;;;0.83;75.08203;950.9333;;;;
2024/01/29 06:13:57;;;;;;;6.1;4.1;;;;;;;0.7;75.46094;950.9698;;;;
2024/01/29 06:16:22;;;;;;;7.5;4.4;;;;;;;0.8;75.43457;950.9749;;;;
2024/01/29 06:18:46;;;;;;;5.7;3.9;;;;;;;0.96;74.64648;951.0286;;;;
2024/01/29 06:21:12;;;;;;;6.8;4.7;;;;;;;0.91;74.29395;951.0259;;;;
2024/01/29 06:23:37;;;;;;;8.8;5.1;;;;;;;0.75;74.45508;950.9515;;;;
2024/01/29 06:26:03;;;;;;;10.2;5.6;;;;;;;0.8;74.55273;951.0251;;;;
2024/01/29 06:28:27;;;;;;;10.4;6.7;;;;;;;0.92;74.32715;951.0943;;;;
2024/01/29 06:30:52;;;;;;;13.4;6.9;;;;;;;0.78;74.38184;951.1188;;;;
2024/01/29 06:33:18;;;;;;;11.1;6.6;;;;;;;0.79;74.63867;951.1714;;;;
2024/01/29 06:35:42;;;;;;;12.1;7.5;;;;;;;0.8;74.73145;951.2054;;;;
2024/01/29 06:38:08;;;;;;;12.1;7.1;;;;;;;0.76;74.96973;951.2162;;;;
2024/01/29 06:40:33;;;;;;;12.8;6.9;;;;;;;0.72;75.0293;951.0941;;;;
2024/01/29 06:42:58;;;;;;;10.5;6.6;;;;;;;0.73;74.77441;951.1735;;;;
2024/01/29 06:45:23;;;;;;;9.3;5.8;;;;;;;0.74;74.49707;951.1361;;;;
2024/01/29 06:47:48;;;;;;;10.5;6.3;;;;;;;0.82;73.98633;951.1512;;;;
2024/01/29 06:50:13;;;;;;;8.4;5.1;;;;;;;0.79;74.26074;951.1718;;;;
2024/01/29 06:52:38;;;;;;;9.1;5;;;;;;;0.79;74.88574;951.1791;;;;
2024/01/29 06:55:03;;;;;;;10.9;7.2;;;;;;;0.8;74.68652;951.1707;;;;
2024/01/29 06:57:28;;;;;;;15.5;10.8;;;;;;;0.85;75.13086;951.1808;;;;
2024/01/29 06:59:54;;;;;;;15.2;9.6;;;;;;;0.76;75.51563;951.2833;;;;
2024/01/29 07:02:19;;;;;;;13.7;9.5;;;;;;;0.83;75.02637;951.2736;;;;
2024/01/29 07:04:44;;;;;;;13.6;7.9;;;;;;;0.82;75.2041;951.3137;;;;
2024/01/29 07:07:09;;;;;;;9.7;7;;;;;;;0.83;75.12793;951.2651;;;;
2024/01/29 07:09:34;;;;;;;11.5;6.7;;;;;;;0.74;75.64551;951.3697;;;;
2024/01/29 07:11:59;;;;;;;9.2;6.5;;;;;;;0.79;75.25195;951.3565;;;;
2024/01/29 07:14:24;;;;;;;7.8;5.6;;;;;;;0.83;75.24902;951.4034;;;;
2024/01/29 07:16:50;;;;;;;8.7;6.1;;;;;;;0.78;75.62012;951.4041;;;;
2024/01/29 07:19:17;;;;;;;7.4;5.9;;;;;;;0.88;74.03125;951.4191;;;;
2024/01/29 07:21:41;;;;;;;9.1;6.2;;;;;;;1;71.9541;951.3958;;;;
2024/01/29 07:24:05;;;;;;;5.4;4;;;;;;;1.38;67.6377;951.468;;;;
2024/01/29 07:26:30;;;;;;;7.2;4.2;;;;;;;1.49;67.44238;951.4536;;;;
2024/01/29 07:28:55;;;;;;;7.1;4.8;;;;;;;1.55;69.48535;951.502;;;;
2024/01/29 07:31:20;;;;;;;8;5.2;;;;;;;1.93;70.10645;951.5115;;;;
2024/01/29 07:33:46;;;;;;;7.3;5.2;;;;;;;2.46;68.81738;951.438;;;;
2024/01/29 07:36:11;;;;;;;8.6;5.9;;;;;;;2.96;67.24902;951.4067;;;;
2024/01/29 07:38:36;;;;;;;6.6;4.4;;;;;;;3.41;66.00684;951.4169;;;;
2024/01/29 07:41:01;;;;;;;7.3;5.3;;;;;;;3.86;64.37891;951.4291;;;;
2024/01/29 07:43:27;;;;;;;40.3;23.6;;;;;;;4.41;62.11133;951.3997;;;;
2024/01/29 07:45:51;;;;;;;28.9;17.5;;;;;;;4.82;59.79199;951.3836;;;;
2024/01/29 07:48:16;;;;;;;20.7;13;;;;;;;4.95;58.50391;951.3178;;;;
2024/01/29 07:50:41;;;;;;;19.1;11.4;;;;;;;5.46;56.7334;951.4385;;;;
2024/01/29 07:53:07;;;;;;;16.6;9.7;;;;;;;6.11;55.41895;951.3378;;;;
2024/01/29 07:55:32;;;;;;;12.8;7.6;;;;;;;6.41;54.7334;951.3998;;;;
2024/01/29 07:57:57;;;;;;;11.5;7.5;;;;;;;6.46;54.19727;951.4927;;;;
2024/01/29 08:00:22;;;;;;;9.5;6;;;;;;;6.84;53.78125;951.3883;;;;
2024/01/29 08:02:48;;;;;;;8.7;6.2;;;;;;;7.17;52.92871;951.4139;;;;
2024/01/29 08:05:12;;;;;;;6.6;4.6;;;;;;;7.35;53.76563;951.4589;;;;
2024/01/29 08:07:38;;;;;;;6;3.5;;;;;;;7.53;51.56543;951.4147;;;;
2024/01/29 08:10:03;;;;;;;7.1;4.2;;;;;;;7.91;50.68164;951.3915;;;;
2024/01/29 08:12:28;;;;;;;7.1;4;;;;;;;8.08;51.63281;951.3741;;;;
2024/01/29 08:14:54;;;;;;;5.6;3.8;;;;;;;8.27;50.65527;951.3945;;;;
2024/01/29 08:17:18;;;;;;;4.3;3.7;;;;;;;8.57;49.73633;951.2883;;;;
2024/01/29 08:19:43;;;;;;;8.7;5;;;;;;;8.77;49.16797;951.3222;;;;
2024/01/29 08:22:09;;;;;;;10.6;6.4;;;;;;;9.22;47.4668;951.2807;;;;
2024/01/29 08:24:34;;;;;;;8.1;4.9;;;;;;;9.47;44.55566;951.288;;;;
2024/01/29 08:26:59;;;;;;;1.9;1.3;;;;;;;9.84;41.19727;951.2988;;;;
2024/01/29 08:29:24;;;;;;;11.2;4.9;;;;;;;10.19;43.48926;951.3191;;;;
2024/01/29 08:31:49;;;;;;;9;5.6;;;;;;;10.11;45.83008;951.323;;;;
2024/01/29 08:34:14;;;;;;;10;6.2;;;;;;;10.04;46.81641;951.2809;;;;
2024/01/29 08:36:39;;;;;;;10.6;5.5;;;;;;;10.15;46.59961;951.2868;;;;
2024/01/29 08:39:05;;;;;;;11.8;5.1;;;;;;;10.35;44.54395;951.2046;;;;
2024/01/29 08:41:30;;;;;;;7;4.1;;;;;;;10.43;43.58203;951.2127;;;;
2024/01/29 08:43:55;;;;;;;7.7;3.8;;;;;;;10.74;41.27148;951.1445;;;;
2024/01/29 08:46:21;;;;;;;6.7;4.6;;;;;;;10.69;42.93359;951.0447;;;;
2024/01/29 08:48:45;;;;;;;9.4;4.3;;;;;;;10.68;42.75098;951.1515;;;;
2024/01/29 08:51:10;;;;;;;5.3;3.6;;;;;;;11.04;42.5;951.1584;;;;
2024/01/29 08:53:35;;;;;;;9;5.3;;;;;;;11.2;41.44043;951.0655;;;;
2024/01/29 08:56:00;;;;;;;7.1;3.2;;;;;;;11.55;39.05957;951.0547;;;;
2024/01/29 08:58:25;;;;;;;10.7;4.2;;;;;;;11.53;40.13281;951.0639;;;;
2024/01/29 09:00:53;;;;;;;9.3;4;;;;;;;11.72;40.01367;951.0658;;;;
2024/01/29 09:03:15;;;;;;;9;4.5;;;;;;;11.9;39.9043;951.075;;;;
2024/01/29 09:05:42;;;;;;;12.4;6.3;;;;;;;11.82;40.36719;951.1082;;;;
2024/01/29 09:08:06;;;;;;;15.9;6.5;;;;;;;11.97;39.62305;951.0112;;;;
2024/01/29 09:10:31;;;;;;;13.4;7.1;;;;;;;12.26;40.12109;951.0308;;;;
2024/01/29 09:12:56;;;;;;;14.6;7.6;;;;;;;12.58;39.42676;951.0247;;;;
2024/01/29 09:15:21;;;;;;;15.5;8.6;;;;;;;12.64;40.31738;950.9841;;;;
2024/01/29 09:17:47;;;;;;;18.2;8.9;;;;;;;12.61;39.15625;950.9163;;;;
2024/01/29 09:20:12;;;;;;;16.3;9;;;;;;;13.08;37.93359;950.95;;;;
2024/01/29 09:22:37;;;;;;;20;10.6;;;;;;;12.95;38.7041;951.0054;;;;
2024/01/29 09:25:02;;;;;;;21.7;10;;;;;;;13.21;38.92188;950.9688;;;;
2024/01/29 09:27:29;;;;;;;18.3;7.6;;;;;;;13.33;39.75977;950.985;;;;
2024/01/29 09:29:52;;;;;;;25.4;8.8;;;;;;;13.65;39.75391;950.905;;;;
2024/01/29 09:32:18;;;;;;;28.7;12.5;;;;;;;14.03;38.04004;950.9698;;;;
2024/01/29 09:34:43;;;;;;;19.9;9.4;;;;;;;14.34;37.64063;950.9799;;;;
2024/01/29 09:37:08;;;;;;;20.7;6.5;;;;;;;14.62;37.61914;950.9769;;;;
2024/01/29 09:39:33;;;;;;;5.3;2.5;;;;;;;14.78;34.39355;950.8582;;;;
2024/01/29 09:41:59;;;;;;;11.3;3.7;;;;;;;14.89;36.68555;950.9177;;;;
2024/01/29 09:44:23;;;;;;;12.7;3.7;;;;;;;15.23;36.34375;950.8566;;;;
2024/01/29 09:46:49;;;;;;;10.5;3.7;;;;;;;15.29;36.60352;950.8758;;;;
2024/01/29 09:49:14;;;;;;;11.8;3.8;;;;;;;15.52;35.64063;950.8883;;;;
2024/01/29 09:51:39;;;;;;;10.2;3.6;;;;;;;15.58;34.70898;950.8527;;;;
2024/01/29 09:54:05;;;;;;;11.6;3.7;;;;;;;15.68;35.78125;950.8295;;;;
2024/01/29 09:56:29;;;;;;;6.4;1.7;;;;;;;15.77;33.01465;950.7548;;;;
2024/01/29 09:58:54;;;;;;;5.1;1.5;;;;;;;16.03;33.33398;950.7819;;;;
2024/01/29 10:01:20;;;;;;;2.9;1.4;;;;;;;16.23;32.85352;950.7372;;;;
2024/01/29 10:03:45;;;;;;;2.8;0.9;;;;;;;16.41;31.31543;950.7031;;;;
2024/01/29 10:06:10;;;;;;;1.5;0.9;;;;;;;16.98;30.4873;950.7133;;;;
2024/01/29 10:08:35;;;;;;;1.1;0.9;;;;;;;17;29.58496;950.6474;;;;
2024/01/29 10:11:00;;;;;;;2.6;0.9;;;;;;;17.03;30.28125;950.6599;;;;
2024/01/29 10:13:25;;;;;;;1.9;0.9;;;;;;;17.04;29.5293;950.6245;;;;
2024/01/29 10:15:51;;;;;;;2.6;0.9;;;;;;;16.99;29.36328;950.6111;;;;
2024/01/29 10:18:16;;;;;;;2;1.1;;;;;;;17.11;29.38379;950.6007;;;;
2024/01/29 10:20:40;;;;;;;7.7;1.2;;;;;;;17.02;29.19141;950.4938;;;;
2024/01/29 10:23:05;;;;;;;2.9;1.1;;;;;;;16.93;30.51855;950.491;;;;
2024/01/29 10:25:34;;;;;;;4.4;1.2;;;;;;;17.19;29.8291;950.4489;;;;
2024/01/29 10:27:56;;;;;;;3.5;0.8;;;;;;;17.47;29.02441;950.4277;;;;
2024/01/29 10:30:22;;;;;;;2.8;0.7;;;;;;;17.33;27.51953;950.4891;;;;
2024/01/29 10:32:46;;;;;;;0.6;0.6;;;;;;;17.33;28.87598;950.51;;;;
2024/01/29 10:35:11;;;;;;;0.6;0.5;;;;;;;17.66;27.03027;950.4478;;;;
2024/01/29 10:37:36;;;;;;;1;0.8;;;;;;;17.73;28.41504;950.3894;;;;
2024/01/29 10:40:02;;;;;;;1.3;0.9;;;;;;;17.6;28.81348;950.3789;;;;
2024/01/29 10:42:26;;;;;;;1.3;0.7;;;;;;;18.13;28.12695;950.3353;;;;
2024/01/29 10:44:52;;;;;;;6.9;1.3;;;;;;;18.04;28.13281;950.2854;;;;
2024/01/29 10:47:17;;;;;;;7;1.6;;;;;;;18.23;29.86523;950.2364;;;;
2024/01/29 10:49:42;;;;;;;4.9;2;;;;;;;18.28;27.97363;950.2339;;;;
2024/01/29 10:52:07;;;;;;;4.2;1.8;;;;;;;18.24;27.97168;950.238;;;;
2024/01/29 10:54:32;;;;;;;3.3;1.4;;;;;;;18.35;28.02441;950.183;;;;
2024/01/29 10:56:57;;;;;;;1.6;1.2;;;;;;;18.25;28.58789;950.1905;;;;
2024/01/29 10:59:23;;;;;;;3.8;1.3;;;;;;;17.87;28.30762;950.14;;;;
2024/01/29 11:01:47;;;;;;;4;1.4;;;;;;;18.14;28.38281;950.1531;;;;
2024/01/29 11:04:13;;;;;;;4.7;1.8;;;;;;;18.05;27.77344;950.1322;;;;
2024/01/29 11:06:38;;;;;;;4.7;1.9;;;;;;;17.85;26.75098;950.0803;;;;
2024/01/29 11:09:03;;;;;;;10.2;1.6;;;;;;;17.94;27.17383;950.0417;;;;
2024/01/29 11:11:29;;;;;;;3.3;1;;;;;;;17.97;28.63965;950.0239;;;;
2024/01/29 11:13:53;;;;;;;2.8;1;;;;;;;18;28.52539;950.0005;;;;
2024/01/29 11:16:18;;;;;;;4;1.2;;;;;;;17.92;28.32324;949.9828;;;;
2024/01/29 11:18:43;;;;;;;6;1.1;;;;;;;17.85;28.58496;949.9272;;;;
2024/01/29 11:22:58;;;;;;;4.7;1.2;;;;;;;17.53;29.27246;949.8778;;;;
2024/01/29 11:25:23;;;;;;;1.8;0.9;;;;;;;17.41;29.94824;949.8861;;;;
2024/01/29 11:27:48;;;;;;;3.4;1;;;;;;;17.41;30.44727;949.8184;;;;
2024/01/29 11:30:14;;;;;;;6;1.6;;;;;;;17.19;31.20898;949.7872;;;;
2024/01/29 11:32:40;;;;;;;2.9;1.3;;;;;;;17.18;30.26953;949.7211;;;;
2024/01/29 11:35:03;;;;;;;1.8;1.1;;;;;;;17.15;29.47852;949.7597;;;;
2024/01/29 11:37:29;;;;;;;2.6;1;;;;;;;16.99;31.02051;949.7944;;;;
2024/01/29 11:39:54;;;;;;;3.3;0.8;;;;;;;16.89;30.49219;949.8036;;;;
2024/01/29 11:42:18;;;;;;;1.3;0.6;;;;;;;16.64;27.70801;949.7224;;;;
2024/01/29 11:44:44;;;;;;;0.9;0.7;;;;;;;16.41;27.43945;949.7199;;;;
2024/01/29 11:47:10;;;;;;;1;0.8;;;;;;;16.47;26.42383;949.6682;;;;
2024/01/29 11:49:34;;;;;;;7.5;3.6;;;;;;;16.46;27.96289;949.6376;;;;
2024/01/29 11:51:59;;;;;;;11.5;5.5;;;;;;;16.37;29.02148;949.5966;;;;
2024/01/29 11:54:24;;;;;;;6.5;2.5;;;;;;;16.15;28.27832;949.587;;;;
2024/01/29 11:56:50;;;;;;;2.4;1.4;;;;;;;16.03;28.27051;949.4851;;;;
2024/01/29 11:59:14;;;;;;;1.7;0.9;;;;;;;15.86;28.12109;949.5535;;;;
2024/01/29 12:01:39;;;;;;;2.2;1.1;;;;;;;15.91;27.21094;949.4647;;;;
2024/01/29 12:04:04;;;;;;;2.4;1;;;;;;;15.74;26.74902;949.4792;;;;
2024/01/29 12:06:32;;;;;;;1.9;1.4;;;;;;;15.6;26.94922;949.4216;;;;
2024/01/29 12:08:56;;;;;;;2.5;1.1;;;;;;;15.56;27.97461;949.4098;;;;
2024/01/29 12:11:21;;;;;;;1.9;1.4;;;;;;;15.43;27.72363;949.3348;;;;
2024/01/29 12:13:46;;;;;;;8.3;3;;;;;;;15.42;29.15527;949.2906;;;;
2024/01/29 12:16:10;;;;;;;5.1;2.8;;;;;;;15.42;28.51953;949.2874;;;;
2024/01/29 12:18:38;;;;;;;4.1;2.3;;;;;;;15.27;29.67578;949.2561;;;;
2024/01/29 12:21:01;;;;;;;2.3;1.1;;;;;;;15.16;29.01074;949.2628;;;;
2024/01/29 12:23:26;;;;;;;2.5;0.8;;;;;;;15.24;29.02832;949.2197;;;;
2024/01/29 12:25:51;;;;;;;2.5;1.5;;;;;;;15.29;28.13086;949.204;;;;
2024/01/29 12:28:16;;;;;;;1.4;1.2;;;;;;;15.15;27.69434;949.1022;;;;
2024/01/29 12:30:41;;;;;;;2.9;1.6;;;;;;;15.19;28.90918;949.1724;;;;
2024/01/29 12:33:07;;;;;;;2;1.2;;;;;;;15.12;30.36914;949.2039;;;;
2024/01/29 12:35:37;;;;;;;5.2;1.6;;;;;;;14.95;30.47266;949.1537;;;;
2024/01/29 12:37:58;;;;;;;2.4;1.2;;;;;;;15.02;28.72461;949.1892;;;;
2024/01/29 12:40:23;;;;;;;2.9;1.3;;;;;;;15.02;29.16211;949.1467;;;;
2024/01/29 12:42:49;;;;;;;3.7;1;;;;;;;14.97;30.38184;949.0256;;;;
2024/01/29 12:45:14;;;;;;;2.5;1.1;;;;;;;14.7;30.66309;949.1172;;;;
2024/01/29 12:47:39;;;;;;;2.2;1;;;;;;;14.58;30.63184;949.0514;;;;
2024/01/29 12:50:04;;;;;;;1.8;0.9;;;;;;;14.52;30.06348;949.0291;;;;
2024/01/29 12:52:30;;;;;;;1.7;1;;;;;;;14.56;29.54688;949.0471;;;;
2024/01/29 12:54:56;;;;;;;2.4;0.8;;;;;;;14.67;29.09375;949.0455;;;;
2024/01/29 12:57:19;;;;;;;3.6;1;;;;;;;14.65;29.66797;949.0035;;;;
2024/01/29 12:59:44;;;;;;;2.3;0.9;;;;;;;14.54;30.87109;948.9916;;;;
2024/01/29 13:02:09;;;;;;;1.7;0.9;;;;;;;14.39;31.88574;948.9435;;;;
2024/01/29 13:04:35;;;;;;;4.4;1.5;;;;;;;14.18;32.20313;948.9567;;;;
2024/01/29 13:07:00;;;;;;;2.6;0.9;;;;;;;14.05;31.53809;948.8845;;;;
2024/01/29 13:09:25;;;;;;;3.4;1.4;;;;;;;14.08;32.24316;948.8025;;;;
2024/01/29 13:11:50;;;;;;;3.1;1.2;;;;;;;14.14;31.46484;948.788;;;;
2024/01/29 13:14:15;;;;;;;3.3;2;;;;;;;14.26;29.86035;948.825;;;;
2024/01/29 13:16:41;;;;;;;4.8;2.7;;;;;;;14.55;29.1543;948.7568;;;;
2024/01/29 13:19:05;;;;;;;5;2.8;;;;;;;14.64;29.66797;948.7269;;;;
2024/01/29 13:21:31;;;;;;;4.9;2.5;;;;;;;14.72;28.20898;948.7413;;;;
2024/01/29 13:23:55;;;;;;;13.1;2.7;;;;;;;14.69;32.42578;948.6817;;;;
2024/01/29 13:26:21;;;;;;;9;2.1;;;;;;;14.61;33.87305;948.6845;;;;
2024/01/29 13:28:46;;;;;;;3.9;1.6;;;;;;;14.65;32.73438;948.6308;;;;
2024/01/29 13:31:11;;;;;;;4.3;1;;;;;;;14.81;31.77832;948.6564;;;;
2024/01/29 13:33:39;;;;;;;5.8;1;;;;;;;14.59;33.75488;948.6547;;;;
2024/01/29 13:36:02;;;;;;;2.7;0.9;;;;;;;14.48;32.31836;948.6495;;;;
2024/01/29 13:38:27;;;;;;;2.2;0.9;;;;;;;14.45;32.78809;948.5641;;;;
2024/01/29 13:40:52;;;;;;;1.9;0.8;;;;;;;14.43;31.94629;948.6161;;;;
2024/01/29 13:43:18;;;;;;;3.4;1.1;;;;;;;14.43;31.98047;948.5623;;;;
2024/01/29 13:45:43;;;;;;;6.8;1.8;;;;;;;14.24;32.92188;948.6253;;;;
2024/01/29 13:48:07;;;;;;;8.3;3.1;;;;;;;14.22;33.8877;948.5729;;;;
2024/01/29 13:50:32;;;;;;;6.8;3.1;;;;;;;14.23;34.75195;948.6644;;;;
2024/01/29 13:52:57;;;;;;;3.7;2;;;;;;;14.22;32.77051;948.6154;;;;
2024/01/29 13:55:22;;;;;;;3.8;1.5;;;;;;;14.28;33.0293;948.6378;;;;
2024/01/29 13:57:47;;;;;;;2.8;1.4;;;;;;;14.21;30.87012;948.6855;;;;
2024/01/29 14:00:13;;;;;;;2.6;1;;;;;;;14.21;30.96289;948.6446;;;;
2024/01/29 14:02:37;;;;;;;2.7;1.6;;;;;;;14.04;32.25098;948.6937;;;;
2024/01/29 14:05:04;;;;;;;3.9;1.7;;;;;;;13.98;31.2793;948.6494;;;;
2024/01/29 14:07:29;;;;;;;5.6;1.9;;;;;;;13.93;31.66797;948.6569;;;;
2024/01/29 14:09:53;;;;;;;6.7;2.1;;;;;;;14.05;33.22949;948.6852;;;;
2024/01/29 14:12:20;;;;;;;3.7;2.2;;;;;;;14.02;36.23145;948.647;;;;
2024/01/29 14:14:43;;;;;;;11.6;6.6;;;;;;;13.82;36.66406;948.6642;;;;
2024/01/29 14:17:08;;;;;;;12.9;7.1;;;;;;;13.71;37.47168;948.6664;;;;
2024/01/29 14:19:33;;;;;;;6.8;3.6;;;;;;;13.61;37.14063;948.6519;;;;
2024/01/29 14:21:58;;;;;;;4.4;2.2;;;;;;;13.66;37.01953;948.6201;;;;